createdAt,value
2023-05-07T00:01:49.497Z,16.32
2023-05-07T00:04:19.327Z,16.28
2023-05-07T00:06:46.398Z,16.25
2023-05-07T00:09:13.654Z,16.22
2023-05-07T00:11:41.812Z,16.20
2023-05-07T00:14:10.329Z,16.16
2023-05-07T00:16:38.194Z,16.12
2023-05-07T00:19:05.978Z,16.08
2023-05-07T00:21:32.790Z,16.07
2023-05-07T00:23:59.831Z,16.04
2023-05-07T00:26:26.734Z,16.01
2023-05-07T00:28:54.032Z,15.98
2023-05-07T00:31:20.878Z,15.98
2023-05-07T00:33:47.768Z,15.97
2023-05-07T00:36:14.614Z,15.98
2023-05-07T00:38:41.632Z,15.96
2023-05-07T00:41:08.588Z,15.93
2023-05-07T00:43:35.567Z,15.93
2023-05-07T00:46:03.354Z,15.93
2023-05-07T00:48:31.240Z,15.94
2023-05-07T00:50:58.819Z,15.94
2023-05-07T00:53:26.138Z,15.92
2023-05-07T00:55:53.385Z,15.91
2023-05-07T00:58:23.325Z,15.85
2023-05-07T01:00:50.162Z,15.88
2023-05-07T01:03:17.239Z,15.81
2023-05-07T01:05:46.774Z,15.88
2023-05-07T01:08:15.994Z,15.84
2023-05-07T01:10:44.428Z,15.81
2023-05-07T01:13:15.592Z,15.81
2023-05-07T01:15:43.711Z,15.86
2023-05-07T01:18:11.229Z,15.86
2023-05-07T01:20:38.215Z,15.84
2023-05-07T01:23:06.610Z,15.79
2023-05-07T01:25:33.828Z,15.78
2023-05-07T01:28:02.527Z,15.77
2023-05-07T01:30:34.101Z,15.74
2023-05-07T01:33:14.770Z,15.64
2023-05-07T01:35:46.485Z,15.61
2023-05-07T01:38:14.492Z,15.60
2023-05-07T01:40:42.036Z,15.59
2023-05-07T01:43:11.526Z,15.54
2023-05-07T01:45:39.025Z,15.51
2023-05-07T01:48:07.160Z,15.44
2023-05-07T01:50:35.767Z,15.40
2023-05-07T01:53:03.626Z,15.45
2023-05-07T01:55:30.714Z,15.50
2023-05-07T01:57:57.536Z,15.45
2023-05-07T02:00:25.033Z,15.44
2023-05-07T02:02:52.837Z,15.45
2023-05-07T02:05:29.021Z,15.41
2023-05-07T02:08:01.771Z,15.37
2023-05-07T02:10:30.352Z,15.37
2023-05-07T02:12:57.369Z,15.35
2023-05-07T02:15:24.946Z,15.27
2023-05-07T02:18:10.262Z,15.17
2023-05-07T02:20:38.903Z,15.27
2023-05-07T02:23:05.768Z,15.30
2023-05-07T02:25:33.659Z,15.33
2023-05-07T02:28:00.804Z,15.32
2023-05-07T02:30:42.693Z,15.29
2023-05-07T02:33:12.502Z,15.27
2023-05-07T02:35:39.791Z,15.27
2023-05-07T02:38:06.819Z,15.26
2023-05-07T02:40:34.880Z,15.27
2023-05-07T02:43:01.971Z,15.33
2023-05-07T02:45:29.501Z,15.37
2023-05-07T02:47:56.470Z,15.45
2023-05-07T02:50:23.447Z,15.48
2023-05-07T02:52:50.452Z,15.51
2023-05-07T02:55:17.330Z,15.51
2023-05-07T02:57:44.144Z,15.50
2023-05-07T03:00:16.689Z,15.42
2023-05-07T03:02:51.138Z,15.34
2023-05-07T03:05:18.202Z,15.33
2023-05-07T03:07:47.224Z,15.31
2023-05-07T03:10:15.444Z,15.28
2023-05-07T03:12:43.294Z,15.25
2023-05-07T03:15:13.752Z,15.21
2023-05-07T03:17:41.600Z,15.15
2023-05-07T03:20:11.084Z,15.11
2023-05-07T03:22:38.788Z,14.97
2023-05-07T03:25:06.116Z,14.88
2023-05-07T03:27:37.032Z,14.85
2023-05-07T03:30:05.598Z,14.84
2023-05-07T03:32:33.391Z,14.82
2023-05-07T03:35:00.390Z,14.81
2023-05-07T03:37:27.409Z,14.79
2023-05-07T03:39:54.710Z,14.77
2023-05-07T03:42:21.876Z,14.77
2023-05-07T03:44:51.327Z,14.81
2023-05-07T03:47:18.865Z,14.84
2023-05-07T03:49:46.975Z,14.86
2023-05-07T03:52:14.811Z,14.88
2023-05-07T03:54:41.783Z,14.88
2023-05-07T03:57:12.275Z,14.90
2023-05-07T03:59:39.762Z,14.93
2023-05-07T04:02:08.735Z,14.89
2023-05-07T04:04:35.654Z,14.93
2023-05-07T04:07:02.684Z,14.93
2023-05-07T04:09:31.106Z,14.94
2023-05-07T04:11:58.314Z,14.97
2023-05-07T04:14:25.453Z,15.02
2023-05-07T04:16:52.911Z,15.05
2023-05-07T04:19:19.976Z,15.12
2023-05-07T04:21:50.294Z,15.17
2023-05-07T04:24:17.474Z,15.22
2023-05-07T04:26:45.291Z,15.21
2023-05-07T04:29:12.589Z,15.25
2023-05-07T04:31:39.572Z,15.28
2023-05-07T04:34:06.627Z,15.27
2023-05-07T04:36:34.296Z,15.25
2023-05-07T04:39:05.458Z,15.26
2023-05-07T04:41:34.016Z,15.26
2023-05-07T04:44:01.643Z,15.20
2023-05-07T04:46:31.599Z,15.13
2023-05-07T04:48:58.818Z,15.11
2023-05-07T04:51:26.489Z,15.09
2023-05-07T04:53:54.047Z,15.13
2023-05-07T04:56:21.722Z,15.23
2023-05-07T04:58:50.921Z,15.30
2023-05-07T05:01:20.989Z,15.43
2023-05-07T05:03:50.701Z,15.56
2023-05-07T05:06:18.144Z,15.73
2023-05-07T05:08:45.003Z,15.88
2023-05-07T05:11:12.181Z,16.00
2023-05-07T05:13:40.886Z,16.16
2023-05-07T05:16:17.534Z,16.39
2023-05-07T05:18:50.301Z,16.61
2023-05-07T05:21:19.895Z,16.98
2023-05-07T05:23:49.423Z,17.28
2023-05-07T05:26:22.899Z,17.39
2023-05-07T05:28:56.209Z,17.87
2023-05-07T05:31:25.612Z,19.28
2023-05-07T05:33:54.498Z,20.35
2023-05-07T05:36:26.987Z,21.29
2023-05-07T05:38:57.668Z,21.80
2023-05-07T05:41:26.089Z,22.13
2023-05-07T05:44:02.961Z,22.20
2023-05-07T05:46:31.698Z,22.17
2023-05-07T05:48:59.851Z,21.66
2023-05-07T05:51:37.350Z,21.14
2023-05-07T05:54:04.222Z,21.17
2023-05-07T05:56:32.089Z,21.53
2023-05-07T05:58:59.232Z,21.96
2023-05-07T06:01:26.377Z,22.31
2023-05-07T06:03:57.223Z,22.55
2023-05-07T06:06:24.161Z,22.83
2023-05-07T06:08:51.326Z,23.00
2023-05-07T06:11:22.805Z,23.17
2023-05-07T06:13:50.936Z,23.39
2023-05-07T06:16:17.873Z,23.46
2023-05-07T06:18:47.856Z,23.44
2023-05-07T06:21:16.308Z,23.27
2023-05-07T06:23:43.334Z,23.42
2023-05-07T06:26:11.619Z,23.57
2023-05-07T06:28:42.334Z,23.83
2023-05-07T06:31:35.606Z,24.16
2023-05-07T06:34:07.332Z,25.45
2023-05-07T06:36:37.731Z,26.36
2023-05-07T06:39:13.523Z,26.90
2023-05-07T06:41:40.361Z,27.21
2023-05-07T06:44:16.227Z,27.38
2023-05-07T06:46:54.576Z,27.18
2023-05-07T06:49:21.692Z,26.41
2023-05-07T06:51:49.762Z,25.91
2023-05-07T06:54:17.330Z,25.85
2023-05-07T06:56:47.347Z,25.57
2023-05-07T06:59:14.896Z,25.02
2023-05-07T07:01:42.242Z,24.71
2023-05-07T07:04:10.861Z,24.69
2023-05-07T07:06:38.914Z,25.25
2023-05-07T07:09:10.233Z,25.64
2023-05-07T07:11:37.337Z,25.95
2023-05-07T07:14:06.478Z,26.16
2023-05-07T07:16:37.714Z,26.33
2023-05-07T07:19:04.674Z,25.76
2023-05-07T07:21:31.807Z,24.74
2023-05-07T07:23:59.235Z,23.89
2023-05-07T07:26:26.587Z,23.70
2023-05-07T07:28:53.483Z,23.72
2023-05-07T07:31:22.481Z,23.69
2023-05-07T07:33:53.063Z,23.36
2023-05-07T07:36:21.920Z,23.83
2023-05-07T07:38:50.353Z,24.40
2023-05-07T07:41:18.218Z,24.15
2023-05-07T07:43:45.094Z,24.30
2023-05-07T07:46:12.079Z,24.70
2023-05-07T07:48:39.076Z,25.16
2023-05-07T07:51:06.904Z,25.54
2023-05-07T07:53:34.487Z,25.72
2023-05-07T07:56:03.550Z,25.95
2023-05-07T07:58:36.500Z,26.17
2023-05-07T08:01:04.230Z,26.52
2023-05-07T08:03:33.672Z,26.54
2023-05-07T08:06:02.303Z,26.06
2023-05-07T08:08:33.047Z,25.11
2023-05-07T08:11:00.251Z,25.04
2023-05-07T08:13:31.755Z,25.26
2023-05-07T08:15:59.483Z,25.40
2023-05-07T08:18:27.445Z,25.31
2023-05-07T08:20:54.879Z,25.56
2023-05-07T08:23:25.765Z,25.87
2023-05-07T08:25:54.584Z,26.53
2023-05-07T08:28:22.486Z,26.76
2023-05-07T08:30:51.375Z,26.62
2023-05-07T08:33:21.011Z,26.68
2023-05-07T08:35:47.867Z,26.53
2023-05-07T08:38:16.120Z,26.24
2023-05-07T08:40:43.358Z,25.68
2023-05-07T08:43:15.966Z,24.49
2023-05-07T08:45:49.768Z,24.94
2023-05-07T08:48:20.389Z,24.97
2023-05-07T08:50:56.537Z,25.56
2023-05-07T08:53:23.413Z,25.66
2023-05-07T08:55:51.472Z,25.35
2023-05-07T08:58:18.898Z,24.92
2023-05-07T09:00:48.281Z,24.64
2023-05-07T09:03:15.962Z,24.64
2023-05-07T09:05:46.789Z,24.77
2023-05-07T09:08:17.562Z,24.92
2023-05-07T09:10:50.131Z,25.24
2023-05-07T09:13:20.359Z,25.20
2023-05-07T09:15:47.350Z,24.85
2023-05-07T09:18:16.755Z,24.75
2023-05-07T09:20:45.690Z,24.92
2023-05-07T09:23:13.542Z,25.05
2023-05-07T09:25:41.834Z,25.34
2023-05-07T09:28:18.154Z,25.64
2023-05-07T09:30:45.629Z,25.42
2023-05-07T09:33:16.255Z,25.04
2023-05-07T09:35:47.648Z,24.44
2023-05-07T09:38:20.845Z,24.41
2023-05-07T09:41:02.277Z,24.17
2023-05-07T09:43:37.011Z,23.94
2023-05-07T09:46:08.987Z,23.95
2023-05-07T09:48:40.751Z,24.04
2023-05-07T09:51:29.634Z,24.21
2023-05-07T09:54:01.458Z,24.55
2023-05-07T09:56:56.024Z,24.33
2023-05-07T09:59:30.180Z,24.38
2023-05-07T10:02:02.156Z,24.64
2023-05-07T10:04:32.705Z,25.05
2023-05-07T10:07:00.904Z,25.05
2023-05-07T10:09:29.015Z,24.99
2023-05-07T10:11:57.251Z,24.92
2023-05-07T10:14:24.519Z,24.51
2023-05-07T10:16:54.748Z,24.03
2023-05-07T10:19:26.128Z,22.94
2023-05-07T10:22:02.876Z,23.03
2023-05-07T10:24:39.047Z,22.88
2023-05-07T10:27:15.614Z,22.60
2023-05-07T10:30:22.081Z,22.49
2023-05-07T10:32:52.178Z,22.42
2023-05-07T10:35:37.523Z,22.57
2023-05-07T10:38:08.377Z,22.46
2023-05-07T10:40:37.952Z,22.40
2023-05-07T10:43:10.242Z,21.91
2023-05-07T10:45:43.068Z,22.11
2023-05-07T10:48:29.775Z,21.97
2023-05-07T10:51:28.205Z,22.22
2023-05-07T10:54:15.240Z,22.00
2023-05-07T10:56:52.007Z,22.08
2023-05-07T10:59:26.864Z,21.72
2023-05-07T11:02:03.685Z,21.59
2023-05-07T11:04:39.813Z,21.65
2023-05-07T11:07:30.089Z,21.53
2023-05-07T11:10:06.927Z,21.75
2023-05-07T11:13:00.053Z,21.59
2023-05-07T11:15:44.190Z,21.50
2023-05-07T11:18:18.946Z,21.70
2023-05-07T11:20:59.728Z,21.82
2023-05-07T11:23:39.378Z,21.97
2023-05-07T11:26:13.102Z,21.95
2023-05-07T11:28:46.419Z,21.89
2023-05-07T11:31:13.505Z,22.21
2023-05-07T11:33:41.929Z,22.18
2023-05-07T11:36:13.480Z,21.84
2023-05-07T11:38:45.656Z,21.90
2023-05-07T11:41:12.513Z,21.98
2023-05-07T11:43:41.071Z,21.98
2023-05-07T11:46:10.700Z,21.96
2023-05-07T11:48:38.119Z,21.95
2023-05-07T11:51:13.234Z,21.91
2023-05-07T11:53:42.429Z,21.96
2023-05-07T11:56:14.375Z,21.92
2023-05-07T11:58:42.596Z,21.93
2023-05-07T12:01:11.591Z,21.91
2023-05-07T12:03:43.764Z,21.91
2023-05-07T12:06:13.254Z,21.66
2023-05-07T12:08:41.829Z,21.77
2023-05-07T12:11:12.471Z,21.78
2023-05-07T12:13:39.505Z,21.61
2023-05-07T12:16:08.050Z,21.47
2023-05-07T12:18:36.414Z,21.50
2023-05-07T12:21:05.123Z,21.41
2023-05-07T12:23:32.311Z,21.25
2023-05-07T12:26:00.202Z,21.24
2023-05-07T12:28:29.828Z,21.31
2023-05-07T12:30:57.642Z,21.37
2023-05-07T12:33:29.525Z,21.53
2023-05-07T12:35:57.455Z,21.63
2023-05-07T12:38:26.802Z,21.63
2023-05-07T12:40:55.835Z,21.41
2023-05-07T12:43:27.375Z,21.42
2023-05-07T12:46:01.238Z,21.18
2023-05-07T12:48:28.280Z,21.00
2023-05-07T12:50:58.889Z,20.89
2023-05-07T12:53:29.991Z,20.92
2023-05-07T12:55:58.825Z,21.03
2023-05-07T12:58:28.802Z,21.11
2023-05-07T13:01:00.754Z,21.15
2023-05-07T13:03:33.415Z,21.06
2023-05-07T13:06:06.136Z,20.98
2023-05-07T13:08:35.205Z,20.89
2023-05-07T13:11:04.846Z,20.82
2023-05-07T13:13:33.572Z,20.99
2023-05-07T13:16:01.631Z,21.05
2023-05-07T13:18:30.352Z,20.86
2023-05-07T13:20:57.528Z,20.83
2023-05-07T13:23:24.589Z,20.81
2023-05-07T13:25:51.868Z,20.67
2023-05-07T13:28:18.719Z,20.85
2023-05-07T13:30:45.734Z,20.86
2023-05-07T13:33:12.732Z,20.78
2023-05-07T13:35:39.796Z,20.73
2023-05-07T13:38:06.845Z,20.70
2023-05-07T13:40:33.865Z,20.81
2023-05-07T13:43:03.144Z,20.86
2023-05-07T13:45:30.841Z,20.93
2023-05-07T13:47:58.216Z,20.97
2023-05-07T13:50:25.581Z,21.14
2023-05-07T13:52:52.488Z,20.85
2023-05-07T13:55:20.541Z,20.80
2023-05-07T13:57:48.158Z,20.82
2023-05-07T14:00:17.383Z,20.88
2023-05-07T14:02:45.329Z,20.78
2023-05-07T14:05:12.311Z,20.69
2023-05-07T14:07:39.141Z,20.77
2023-05-07T14:10:06.942Z,20.82
2023-05-07T14:12:34.316Z,20.74
2023-05-07T14:15:01.203Z,20.64
2023-05-07T14:17:28.253Z,20.53
2023-05-07T14:19:55.862Z,20.61
2023-05-07T14:22:23.682Z,20.59
2023-05-07T14:25:05.384Z,20.34
2023-05-07T14:27:34.823Z,20.34
2023-05-07T14:30:01.978Z,20.47
2023-05-07T14:32:34.927Z,20.59
2023-05-07T14:35:02.058Z,20.51
2023-05-07T14:37:33.145Z,20.48
2023-05-07T14:40:00.040Z,20.29
2023-05-07T14:42:26.984Z,20.25
2023-05-07T14:44:54.330Z,20.15
2023-05-07T14:47:21.391Z,20.32
2023-05-07T14:49:48.191Z,20.18
2023-05-07T14:52:15.080Z,20.20
2023-05-07T14:54:42.063Z,20.33
2023-05-07T14:57:11.466Z,20.21
2023-05-07T14:59:42.658Z,20.10
2023-05-07T15:02:12.364Z,20.07
2023-05-07T15:04:49.750Z,20.15
2023-05-07T15:07:16.955Z,20.14
2023-05-07T15:09:45.742Z,20.24
2023-05-07T15:12:13.002Z,20.10
2023-05-07T15:14:40.682Z,19.97
2023-05-07T15:17:08.544Z,19.87
2023-05-07T15:19:35.603Z,19.83
2023-05-07T15:22:05.687Z,19.79
2023-05-07T15:24:32.654Z,19.76
2023-05-07T15:26:59.959Z,19.71
2023-05-07T15:29:26.896Z,19.62
2023-05-07T15:31:53.728Z,19.62
2023-05-07T15:34:21.875Z,19.64
2023-05-07T15:36:48.976Z,19.60
2023-05-07T15:39:17.084Z,19.46
2023-05-07T15:41:46.852Z,19.23
2023-05-07T15:44:13.593Z,19.23
2023-05-07T15:46:40.462Z,19.20
2023-05-07T15:49:08.499Z,19.24
2023-05-07T15:51:36.916Z,19.01
2023-05-07T15:54:04.157Z,18.90
2023-05-07T15:56:33.903Z,18.92
2023-05-07T15:59:01.012Z,18.73
2023-05-07T16:01:28.368Z,18.60
2023-05-07T16:03:55.512Z,18.56
2023-05-07T16:06:22.496Z,18.51
2023-05-07T16:08:49.292Z,18.48
2023-05-07T16:11:16.155Z,18.44
2023-05-07T16:13:43.079Z,18.47
2023-05-07T16:16:11.213Z,18.41
2023-05-07T16:18:38.113Z,18.42
2023-05-07T16:21:05.540Z,18.26
2023-05-07T16:23:32.377Z,18.27
2023-05-07T16:25:59.160Z,18.13
2023-05-07T16:28:26.745Z,17.99
2023-05-07T16:30:53.637Z,17.91
2023-05-07T16:33:22.807Z,17.83
2023-05-07T16:35:53.997Z,17.60
2023-05-07T16:38:24.558Z,17.61
2023-05-07T16:40:51.730Z,17.73
2023-05-07T16:43:18.741Z,17.58
2023-05-07T16:45:46.620Z,17.49
2023-05-07T16:48:13.497Z,17.38
2023-05-07T16:50:40.325Z,17.27
2023-05-07T16:53:07.543Z,17.21
2023-05-07T16:55:38.951Z,17.20
2023-05-07T16:58:07.849Z,17.06
2023-05-07T17:00:49.046Z,17.08
2023-05-07T17:03:18.544Z,16.93
2023-05-07T17:05:45.671Z,16.88
2023-05-07T17:08:14.124Z,16.78
2023-05-07T17:10:41.803Z,16.88
2023-05-07T17:13:08.675Z,16.71
2023-05-07T17:15:35.584Z,16.60
2023-05-07T17:18:02.488Z,16.38
2023-05-07T17:20:31.768Z,16.26
2023-05-07T17:22:58.646Z,16.10
2023-05-07T17:25:25.934Z,16.07
2023-05-07T17:27:53.074Z,15.96
2023-05-07T17:30:20.608Z,15.81
2023-05-07T17:32:47.480Z,15.76
2023-05-07T17:35:15.483Z,15.65
2023-05-07T17:37:47.116Z,15.50
2023-05-07T17:40:15.379Z,15.47
2023-05-07T17:42:42.190Z,15.42
2023-05-07T17:45:09.413Z,15.21
2023-05-07T17:47:36.264Z,15.17
2023-05-07T17:50:05.995Z,15.07
2023-05-07T17:52:32.829Z,14.88
2023-05-07T17:54:59.624Z,14.71
2023-05-07T17:57:26.847Z,14.54
2023-05-07T17:59:53.690Z,14.58
2023-05-07T18:02:20.566Z,14.43
2023-05-07T18:04:47.571Z,14.43
2023-05-07T18:07:14.660Z,14.34
2023-05-07T18:09:41.638Z,14.26
2023-05-07T18:12:08.582Z,14.11
2023-05-07T18:14:38.334Z,13.91
2023-05-07T18:17:05.136Z,13.86
2023-05-07T18:19:32.028Z,13.85
2023-05-07T18:21:58.843Z,13.69
2023-05-07T18:24:27.141Z,13.46
2023-05-07T18:26:54.748Z,13.35
2023-05-07T18:29:21.564Z,13.31
2023-05-07T18:31:48.410Z,13.23
2023-05-07T18:34:15.217Z,13.28
2023-05-07T18:36:42.207Z,13.30
2023-05-07T18:39:09.046Z,13.17
2023-05-07T18:41:36.826Z,13.07
2023-05-07T18:44:03.720Z,12.80
2023-05-07T18:46:30.631Z,12.87
2023-05-07T18:48:57.583Z,12.87
2023-05-07T18:51:24.407Z,12.83
2023-05-07T18:53:51.221Z,12.76
2023-05-07T18:56:18.087Z,12.63
2023-05-07T18:58:45.015Z,12.60
2023-05-07T19:01:11.772Z,12.49
2023-05-07T19:03:38.578Z,12.48
2023-05-07T19:06:06.164Z,12.43
2023-05-07T19:08:33.289Z,12.42
2023-05-07T19:11:00.482Z,12.46
2023-05-07T19:13:27.714Z,12.53
2023-05-07T19:15:55.152Z,12.45
2023-05-07T19:18:22.374Z,12.37
2023-05-07T19:20:52.120Z,12.40
2023-05-07T19:23:21.498Z,12.29
2023-05-07T19:25:49.182Z,12.22
2023-05-07T19:28:16.566Z,12.11
2023-05-07T19:30:43.410Z,12.03
2023-05-07T19:33:10.415Z,12.01
2023-05-07T19:35:40.128Z,12.01
2023-05-07T19:38:08.126Z,11.97
2023-05-07T19:40:36.417Z,11.98
2023-05-07T19:43:03.618Z,11.95
2023-05-07T19:45:30.792Z,11.97
2023-05-07T19:47:57.716Z,11.95
2023-05-07T19:50:24.633Z,11.92
2023-05-07T19:52:54.947Z,11.82
2023-05-07T19:55:23.069Z,11.71
2023-05-07T19:57:50.071Z,11.69
2023-05-07T20:00:17.808Z,11.56
2023-05-07T20:02:49.829Z,11.68
2023-05-07T20:05:16.713Z,11.54
2023-05-07T20:07:48.468Z,11.52
2023-05-07T20:10:15.638Z,11.50
2023-05-07T20:12:42.884Z,11.59
2023-05-07T20:15:15.018Z,11.68
2023-05-07T20:17:49.253Z,11.69
2023-05-07T20:20:24.038Z,11.71
2023-05-07T20:22:51.994Z,11.70
2023-05-07T20:25:31.298Z,11.69
2023-05-07T20:27:58.351Z,11.60
2023-05-07T20:30:27.848Z,11.60
2023-05-07T20:32:54.795Z,11.54
2023-05-07T20:35:21.673Z,11.48
2023-05-07T20:37:49.445Z,11.49
2023-05-07T20:40:17.836Z,11.58
2023-05-07T20:42:49.638Z,11.60
2023-05-07T20:45:16.450Z,11.67
2023-05-07T20:47:46.094Z,11.71
2023-05-07T20:50:18.883Z,11.64
2023-05-07T20:52:46.920Z,11.66
2023-05-07T20:55:13.793Z,11.52
2023-05-07T20:57:40.916Z,11.42
2023-05-07T21:00:09.413Z,11.28
2023-05-07T21:02:38.776Z,11.29
2023-05-07T21:05:09.436Z,11.32
2023-05-07T21:07:36.524Z,11.36
2023-05-07T21:10:07.174Z,11.36
2023-05-07T21:12:34.668Z,11.39
2023-05-07T21:15:02.842Z,11.38
2023-05-07T21:17:35.525Z,11.40
2023-05-07T21:20:03.988Z,11.42
2023-05-07T21:22:35.950Z,11.39
2023-05-07T21:25:05.731Z,11.38
2023-05-07T21:27:32.808Z,11.39
2023-05-07T21:30:04.879Z,11.35
2023-05-07T21:32:37.012Z,11.33
2023-05-07T21:35:12.193Z,11.27
2023-05-07T21:37:39.532Z,11.26
2023-05-07T21:40:07.723Z,11.28
2023-05-07T21:42:35.236Z,11.18
2023-05-07T21:45:06.477Z,11.12
2023-05-07T21:47:34.087Z,11.08
2023-05-07T21:50:01.975Z,10.94
2023-05-07T21:52:32.707Z,10.87
2023-05-07T21:55:01.397Z,10.84
2023-05-07T21:57:30.789Z,10.76
2023-05-07T22:00:00.974Z,10.66
2023-05-07T22:02:49.444Z,10.63
2023-05-07T22:05:16.441Z,10.66
2023-05-07T22:07:44.343Z,10.72
2023-05-07T22:10:11.456Z,10.76
2023-05-07T22:12:38.816Z,10.74
2023-05-07T22:15:06.366Z,10.58
2023-05-07T22:17:33.637Z,10.56
2023-05-07T22:20:00.679Z,10.45
2023-05-07T22:22:27.446Z,10.36
2023-05-07T22:24:54.311Z,10.37
2023-05-07T22:27:21.107Z,10.42
2023-05-07T22:29:47.980Z,10.48
2023-05-07T22:32:15.055Z,10.53
2023-05-07T22:34:41.918Z,10.56
2023-05-07T22:37:08.769Z,10.59
2023-05-07T22:39:35.764Z,10.62
2023-05-07T22:42:02.717Z,10.65
2023-05-07T22:44:29.833Z,10.64
2023-05-07T22:46:56.725Z,10.65
2023-05-07T22:49:23.569Z,10.65
2023-05-07T22:51:50.489Z,10.65
2023-05-07T22:54:17.481Z,10.58
2023-05-07T22:56:44.235Z,10.47
2023-05-07T22:59:11.151Z,10.35
2023-05-07T23:01:38.168Z,10.33
2023-05-07T23:04:05.211Z,10.22
2023-05-07T23:06:32.115Z,10.21
2023-05-07T23:08:58.999Z,10.17
2023-05-07T23:11:26.500Z,10.21
2023-05-07T23:13:53.342Z,10.29
2023-05-07T23:16:20.317Z,10.31
2023-05-07T23:18:47.892Z,10.31
2023-05-07T23:21:14.797Z,10.29
2023-05-07T23:23:41.901Z,10.29
2023-05-07T23:26:08.807Z,10.33
2023-05-07T23:28:35.678Z,10.32
2023-05-07T23:31:02.586Z,10.29
2023-05-07T23:33:29.405Z,10.25
2023-05-07T23:36:00.786Z,10.21
2023-05-07T23:38:27.713Z,10.19
2023-05-07T23:40:55.005Z,10.16
2023-05-07T23:43:22.215Z,10.17
2023-05-07T23:45:49.572Z,10.11
2023-05-07T23:48:16.621Z,10.09
2023-05-07T23:50:43.533Z,10.08
2023-05-07T23:53:10.510Z,10.08
2023-05-07T23:55:37.523Z,10.07
2023-05-07T23:58:04.472Z,10.04
